地図

経路データ

SID SEASON NUMBER BASIN SUBBASIN NAME ISO_TIME NATURE LAT LON WMO_WIND WMO_PRES WMO_AGENCY TRACK_TYPE DIST2LAND LANDFALL IFLAG USA_AGENCY USA_ATCF_ID USA_LAT USA_LON USA_RECORD USA_STATUS USA_WIND USA_PRES USA_SSHS USA_R34_NE USA_R34_SE USA_R34_SW USA_R34_NW USA_R50_NE USA_R50_SE USA_R50_SW USA_R50_NW USA_R64_NE USA_R64_SE USA_R64_SW USA_R64_NW USA_POCI USA_ROCI USA_RMW USA_EYE TOKYO_LAT TOKYO_LON TOKYO_GRADE TOKYO_WIND TOKYO_PRES TOKYO_R50_DIR TOKYO_R50_LONG TOKYO_R50_SHORT TOKYO_R30_DIR TOKYO_R30_LONG TOKYO_R30_SHORT TOKYO_LAND CMA_LAT CMA_LON CMA_CAT CMA_WIND CMA_PRES HKO_LAT HKO_LON HKO_CAT HKO_WIND HKO_PRES NEWDELHI_LAT NEWDELHI_LON NEWDELHI_GRADE NEWDELHI_WIND NEWDELHI_PRES NEWDELHI_CI NEWDELHI_DP NEWDELHI_POCI REUNION_LAT REUNION_LON REUNION_TYPE REUNION_WIND REUNION_PRES REUNION_TNUM REUNION_CI REUNION_RMW REUNION_R34_NE REUNION_R34_SE REUNION_R34_SW REUNION_R34_NW REUNION_R50_NE REUNION_R50_SE REUNION_R50_SW REUNION_R50_NW REUNION_R64_NE REUNION_R64_SE REUNION_R64_SW REUNION_R64_NW BOM_LAT BOM_LON BOM_TYPE BOM_WIND BOM_PRES BOM_TNUM BOM_CI BOM_RMW BOM_R34_NE BOM_R34_SE BOM_R34_SW BOM_R34_NW BOM_R50_NE BOM_R50_SE BOM_R50_SW BOM_R50_NW BOM_R64_NE BOM_R64_SE BOM_R64_SW BOM_R64_NW BOM_ROCI BOM_POCI BOM_EYE BOM_POS_METHOD BOM_PRES_METHOD NADI_LAT NADI_LON NADI_CAT NADI_WIND NADI_PRES WELLINGTON_LAT WELLINGTON_LON WELLINGTON_WIND WELLINGTON_PRES DS824_LAT DS824_LON DS824_STAGE DS824_WIND DS824_PRES TD9636_LAT TD9636_LON TD9636_STAGE TD9636_WIND TD9636_PRES TD9635_LAT TD9635_LON TD9635_WIND TD9635_PRES TD9635_ROCI NEUMANN_LAT NEUMANN_LON NEUMANN_CLASS NEUMANN_WIND NEUMANN_PRES MLC_LAT MLC_LON MLC_CLASS MLC_WIND MLC_PRES USA_GUST BOM_GUST BOM_GUST_PER REUNION_GUST REUNION_GUST_PER USA_SEAHGT USA_SEARAD_NE USA_SEARAD_SE USA_SEARAD_SW USA_SEARAD_NW STORM_SPEED STORM_DIR
1994273N08176 1994 98 WP MM SETH 1994-09-30 06:00:00 NR 7.60000 175.600 main 2431 2372 O_____________ jtwc_wp WP321994 7.60000 175.600 10 -1 17 270
1994273N08176 1994 98 WP MM SETH 1994-09-30 09:00:00 NR 7.59283 174.750 main 2364 2307 P_____________ WP321994 7.59283 174.750 12 -1 17 270
1994273N08176 1994 98 WP MM SETH 1994-09-30 12:00:00 NR 7.60000 173.900 main 2307 2253 O_____________ jtwc_wp WP321994 7.60000 173.900 15 -1 17 271
1994273N08176 1994 98 WP MM SETH 1994-09-30 15:00:00 NR 7.63483 173.050 main 2253 2203 P_____________ WP321994 7.63483 173.050 15 -1 17 273
1994273N08176 1994 98 WP MM SETH 1994-09-30 18:00:00 NR 7.70000 172.200 main 2203 2162 O_____________ jtwc_wp WP321994 7.70000 172.200 15 -1 17 275
1994273N08176 1994 98 WP MM SETH 1994-09-30 21:00:00 NR 7.79233 171.350 main 2162 2119 P_____________ WP321994 7.79233 171.350 15 -1 17 277
1994273N08176 1994 98 WP MM SETH 1994-10-01 00:00:00 NR 7.90000 170.500 main 2119 2086 O_____________ jtwc_wp WP321994 7.90000 170.500 15 -1 17 277
1994273N08176 1994 98 WP MM SETH 1994-10-01 03:00:00 NR 7.99983 169.650 main 2080 2050 P_____________ WP321994 7.99983 169.650 15 -1 17 277
1994273N08176 1994 98 WP MM SETH 1994-10-01 06:00:00 NR 8.10000 168.800 main 2050 2024 O_____________ jtwc_wp WP321994 8.10000 168.800 15 -1 17 277
1994273N08176 1994 98 WP MM SETH 1994-10-01 09:00:00 NR 8.19228 167.957 main 2024 1997 P_____________ WP321994 8.19228 167.957 17 -1 17 277
1994273N08176 1994 98 WP MM SETH 1994-10-01 12:00:00 NR 8.30000 167.100 main 1997 1978 O_____________ jtwc_wp WP321994 8.30000 167.100 20 -1 18 278
1994273N08176 1994 98 WP MM SETH 1994-10-01 15:00:00 NR 8.44235 166.207 main 1975 1959 P_____________ WP321994 8.44235 166.207 20 -1 18 280
1994273N08176 1994 98 WP MM SETH 1994-10-01 18:00:00 NR 8.60000 165.300 main 1952 1906 O_____________ jtwc_wp WP321994 8.60000 165.300 20 -1 18 280
1994273N08176 1994 98 WP MM SETH 1994-10-01 21:00:00 NR 8.74979 164.400 main 1906 1862 P_____________ WP321994 8.74979 164.400 20 -1 18 280
1994273N08176 1994 98 WP MM SETH 1994-10-02 00:00:00 NR 8.90000 163.500 main 1862 1808 O_____________ jtwc_wp WP321994 8.90000 163.500 20 -1 18 280
1994273N08176 1994 98 WP MM SETH 1994-10-02 03:00:00 NR 9.04978 162.600 main 1808 1766 P_____________ WP321994 9.04978 162.600 22 -1 18 280
1994273N08176 1994 98 WP MM SETH 1994-10-02 06:00:00 NR 9.20000 161.700 main 1766 1716 O_____________ jtwc_wp WP321994 9.20000 161.700 25 -1 18 280
1994273N08176 1994 98 WP MM SETH 1994-10-02 09:00:00 NR 9.34977 160.800 main 1716 1705 P_____________ WP321994 9.34977 160.800 25 -1 18 288
1994273N08176 1994 98 WP MM SETH 1994-10-02 12:00:00 TS 9.75000 159.933 1006 tokyo main 1709 1662 OOO___________ jtwc_wp WP321994 9.50000 159.900 25 -1 8.50000 160.000 2 1006 0 0 0 12.0000 160.000 1 23 1006 20 288
1994273N08176 1994 98 WP MM SETH 1994-10-02 15:00:00 TS 9.95265 158.886 main 1671 1615 PPP___________ WP321994 9.64977 159.000 27 -1 8.60537 158.780 2 1005 0 0 11.9057 158.765 1 23 1005 22 276
1994273N08176 1994 98 WP MM SETH 1994-10-02 18:00:00 TS 9.99091 157.718 1004 tokyo main 1610 1567 OOOO__________ jtwc_wp WP321994 9.80000 158.100 30 -1 8.80000 157.500 2 1004 0 0 0 11.8000 157.500 1 23 1004 8.90000 157.500 TD 25 1004 24 274
1994273N08176 1994 98 WP MM SETH 1994-10-02 21:00:00 TS 10.1042 156.497 main 1562 1532 PPPP__________ WP321994 9.95726 157.200 30 -1 9.13534 156.161 2 1003 0 0 11.6727 156.218 1 26 1003 9.19860 156.320 TD 25 1004 23 275
1994273N08176 1994 98 WP MM SETH 1994-10-03 00:00:00 TS 10.1933 155.433 1002 tokyo main 1529 1508 OOOO__________ jtwc_wp WP321994 10.1000 156.300 30 -1 9.50000 155.000 2 1002 0 0 0 11.5000 155.100 1 29 1002 9.50000 155.300 TD 25 1004 19 275
1994273N08176 1994 98 WP MM SETH 1994-10-03 03:00:00 TS 10.2644 154.626 main 1513 1496 PPPP__________ WP321994 10.2073 155.400 32 -1 9.77173 154.252 2 1001 0 0 11.2718 154.310 1 33 1000 9.80691 154.540 TD 27 1002 15 276
1994273N08176 1994 98 WP MM SETH 1994-10-03 06:00:00 TS 10.3500 153.950 35 1000 tokyo main 1507 1491 OOOO__________ jtwc_wp WP321994 10.3000 154.500 35 0 10.0000 153.700 3 35 1000 0 9 100 100 0 11.0000 153.700 2 38 998 10.1000 153.900 TD 30 1000 14 276
1994273N08176 1994 98 WP MM SETH 1994-10-03 09:00:00 TS 10.3973 153.248 main 1489 1481 PPPP__________ WP321994 10.3923 153.592 35 0 10.2073 153.100 3 35 999 0 9 100 100 10.6323 153.092 2 38 998 10.3573 153.207 TD 32 999 14 275
1994273N08176 1994 98 WP MM SETH 1994-10-03 12:00:00 TS 10.4750 152.550 35 998 tokyo main 1491 1486 OOOO__________ jtwc_wp WP321994 10.5000 152.700 35 0 10.4000 152.500 3 35 998 0 9 100 100 0 10.4000 152.500 2 38 998 10.6000 152.500 TS 35 998 14 281
1994273N08176 1994 98 WP MM SETH 1994-10-03 15:00:00 TS 10.6541 151.853 main 1505 1502 PPPP__________ WP321994 10.6422 151.842 37 0 10.5921 151.902 3 37 997 0 9 110 110 10.5171 151.903 2 38 996 10.8648 151.765 TS 37 996 15 286
1994273N08176 1994 98 WP MM SETH 1994-10-03 18:00:00 TS 10.8750 151.100 40 996 tokyo main 1513 1504 OOOO__________ jtwc_wp WP321994 10.8000 151.000 40 0 10.8000 151.200 3 40 996 0 9 120 120 0 10.8000 151.200 2 38 995 11.1000 151.000 TS 40 994 17 285
1994273N08176 1994 98 WP MM SETH 1994-10-03 21:00:00 TS 11.0938 150.220 main 1511 1506 PPPP__________ WP321994 10.9498 150.142 40 0 11.0728 150.265 3 40 995 0 9 120 120 11.0728 150.265 2 38 995 11.2798 150.207 TS 40 994 18 283
1994273N08176 1994 98 WP MM SETH 1994-10-04 00:00:00 TS 11.2750 149.325 40 994 tokyo main 1516 1509 OOOO__________ jtwc_wp WP321994 11.1000 149.300 40 0 11.3000 149.300 3 40 994 0 9 120 120 0 11.3000 149.300 2 38 995 11.4000 149.400 TS 40 994 17 280
1994273N08176 1994 98 WP MM SETH 1994-10-04 03:00:00 TS 11.3720 148.548 main 1517 1513 PPPP__________ WP321994 11.2497 148.492 42 0 11.3868 148.550 3 42 993 0 9 120 120 11.3793 148.550 2 43 992 11.4723 148.600 TS 42 992 15 276
1994273N08176 1994 98 WP MM SETH 1994-10-04 06:00:00 TS 11.4250 147.775 45 992 tokyo main 1513 1512 OOOO__________ jtwc_wp WP321994 11.4000 147.700 45 0 11.4000 147.800 3 45 992 0 9 120 120 0 11.4000 147.800 3 48 990 11.5000 147.800 TS 45 990 16 274
1994273N08176 1994 98 WP MM SETH 1994-10-04 09:00:00 TS 11.4731 146.904 main 1523 1523 PPPP__________ WP321994 11.5497 146.907 45 0 11.3927 146.850 3 45 991 0 9 120 120 11.4502 146.857 3 48 990 11.4998 147.000 TS 45 990 17 273
1994273N08176 1994 98 WP MM SETH 1994-10-04 12:00:00 TS 11.5250 146.025 45 990 tokyo main 1525 1525 OOOO__________ jtwc_wp WP321994 11.7000 146.100 45 0 11.4000 145.900 3 45 990 0 9 120 120 0 11.5000 145.900 3 48 990 11.5000 146.200 TS 45 990 17 274
1994273N08176 1994 98 WP MM SETH 1994-10-04 15:00:00 TS 11.5935 145.208 main 1542 1542 PPPP__________ WP321994 11.8498 145.257 47 0 11.4696 145.120 3 47 987 0 9 135 135 11.5348 145.055 3 48 987 11.5198 145.400 TS 47 987 16 276
1994273N08176 1994 98 WP MM SETH 1994-10-04 18:00:00 TS 11.7000 144.425 50 985 tokyo main 1565 1565 OOOO__________ jtwc_wp WP321994 12.0000 144.400 50 0 11.6000 144.400 4 50 985 0 9 150 150 0 11.6000 144.300 3 48 985 11.6000 144.600 STS 50 985 15 280
1994273N08176 1994 98 WP MM SETH 1994-10-04 21:00:00 TS 11.8540 143.676 main 1601 1601 PPPP__________ WP321994 12.1497 143.550 50 0 11.7771 143.672 4 50 985 0 9 150 150 11.7118 143.672 3 48 985 11.7772 143.808 STS 50 985 15 283
1994273N08176 1994 98 WP MM SETH 1994-10-05 00:00:00 TS 12.0500 142.900 50 985 tokyo main 1620 1605 OOOO__________ jtwc_wp WP321994 12.3000 142.700 50 0 12.0000 142.900 4 50 985 0 9 150 150 0 11.9000 143.000 3 48 985 12.0000 143.000 STS 50 985 17 284
1994273N08176 1994 98 WP MM SETH 1994-10-05 03:00:00 TS 12.2694 142.018 main 1613 1594 PPPP__________ WP321994 12.4497 141.850 52 0 12.2426 142.000 4 50 985 0 9 150 150 12.1854 142.065 3 48 985 12.1998 142.157 STS 50 985 18 285
1994273N08176 1994 98 WP MM SETH 1994-10-05 06:00:00 TS 12.5000 141.125 50 985 tokyo main 1596 1588 OOOO__________ jtwc_wp WP321994 12.6000 141.000 55 0 12.5000 141.100 4 50 985 0 9 150 150 0 12.5000 141.100 3 48 985 12.4000 141.300 STS 50 985 17 285
1994273N08176 1994 98 WP MM SETH 1994-10-05 09:00:00 TS 12.7138 140.336 main 1588 1517 PPPP__________ WP321994 12.7422 140.150 57 0 12.7567 140.365 4 52 982 0 9 165 165 12.7640 140.372 3 48 982 12.5922 140.457 STS 50 985 16 285
1994273N08176 1994 98 WP MM SETH 1994-10-05 12:00:00 TS 12.9250 139.525 55 980 tokyo main 1506 1412 OOOO__________ jtwc_wp WP321994 12.9000 139.300 60 0 13.0000 139.600 4 55 980 9 30 30 9 180 180 0 13.0000 139.600 3 48 980 12.8000 139.600 STS 50 985 18 284
1994273N08176 1994 98 WP MM SETH 1994-10-05 15:00:00 TS 13.1414 138.566 main 1412 1319 PPPP__________ WP321994 13.0847 138.450 62 0 13.2228 138.608 4 57 977 9 40 40 9 180 180 13.2157 138.500 3 53 980 13.0423 138.707 STS 52 982 19 283
1994273N08176 1994 98 WP MM SETH 1994-10-05 18:00:00 TS 13.3500 137.600 60 975 tokyo main 1310 1228 OOOO__________ jtwc_wp WP321994 13.3000 137.600 65 1 13.4000 137.600 4 60 975 9 50 50 9 180 180 0 13.4000 137.400 3 58 980 13.3000 137.800 STS 55 980 18 282
1994273N08176 1994 98 WP MM SETH 1994-10-05 21:00:00 TS 13.5222 136.739 main 1217 1148 PPPP__________ WP321994 13.5349 136.735 67 1 13.4771 136.754 4 62 972 9 60 60 9 190 190 13.5344 136.582 3 58 977 13.5423 136.885 STS 57 977 17 283
1994273N08176 1994 98 WP MM SETH 1994-10-06 00:00:00 TS 13.7250 135.950 65 970 tokyo main 1148 1070 OOOO__________ jtwc_wp WP321994 13.8000 135.900 70 1 13.6000 136.000 5 65 970 9 70 70 9 200 200 0 13.7000 135.900 3 58 975 13.8000 136.000 STS 60 975 16 288
1994273N08176 1994 98 WP MM SETH 1994-10-06 03:00:00 TS 14.0147 135.208 main 1070 1002 PPPP__________ WP321994 14.0921 135.135 72 1 13.9047 135.285 5 67 967 9 75 75 9 200 200 13.9697 135.235 3 63 972 14.0922 135.177 STS 62 972 15 294
1994273N08176 1994 98 WP MM SETH 1994-10-06 06:00:00 TS 14.3500 134.500 70 965 tokyo main 1005 940 OOOO__________ jtwc_wp WP321994 14.4000 134.400 75 1 14.3000 134.600 5 70 965 9 80 80 9 200 200 0 14.3000 134.600 4 68 970 14.4000 134.400 T 65 970 15 296
1994273N08176 1994 98 WP MM SETH 1994-10-06 09:00:00 TS 14.6870 133.808 main 940 879 PPPP__________ WP321994 14.6998 133.650 77 1 14.7069 133.937 5 72 962 9 85 85 9 210 210 14.6418 134.002 4 68 970 14.6997 133.642 T 67 967 15 296
1994273N08176 1994 98 WP MM SETH 1994-10-06 12:00:00 TS 15.0250 133.075 75 960 tokyo main 879 812 OOOO__________ jtwc_wp WP321994 15.0000 132.900 80 1 15.1000 133.200 5 75 960 9 90 90 9 220 220 0 15.0000 133.300 4 68 970 15.0000 132.900 T 70 965 17 293
1994273N08176 1994 98 WP MM SETH 1994-10-06 15:00:00 TS 15.3489 132.214 main 802 742 PPPP__________ WP321994 15.2923 132.150 82 1 15.4230 132.250 5 77 957 9 95 95 9 230 230 15.3732 132.308 4 72 965 15.3072 132.150 T 72 962 18 291
1994273N08176 1994 98 WP MM SETH 1994-10-06 18:00:00 TS 15.6500 131.350 80 955 tokyo main 747 688 OOOO__________ jtwc_wp WP321994 15.6000 131.400 85 2 15.7000 131.300 5 80 955 9 100 100 9 240 240 0 15.7000 131.300 4 77 960 15.6000 131.400 T 75 960 17 289
1994273N08176 1994 98 WP MM SETH 1994-10-06 21:00:00 TS 15.8990 130.598 main 688 644 PPPP__________ WP321994 15.9499 130.635 90 2 15.9344 130.562 5 82 950 9 105 105 9 250 250 15.8768 130.554 4 77 957 15.8348 130.642 T 80 955 15 291
1994273N08176 1994 98 WP MM SETH 1994-10-07 00:00:00 TS 16.1750 129.900 85 945 tokyo main 644 591 OOOO__________ jtwc_wp WP321994 16.3000 129.900 95 2 16.2000 129.900 5 85 945 9 110 110 9 260 260 0 16.1000 129.900 4 77 955 16.1000 129.900 ST 85 950 15 296
1994273N08176 1994 98 WP MM SETH 1994-10-07 03:00:00 TS 16.5674 129.192 main 597 561 PPPP__________ WP321994 16.5997 129.227 100 3 16.5925 129.178 5 87 940 9 115 115 9 260 260 16.5924 129.186 4 82 952 16.4848 129.178 ST 90 945 15 301
1994273N08176 1994 98 WP MM SETH 1994-10-07 06:00:00 TS 16.9750 128.525 90 935 tokyo main 559 533 OOOO__________ jtwc_wp WP321994 16.9000 128.600 105 3 17.0000 128.500 5 90 935 9 120 120 9 260 260 0 17.1000 128.500 5 87 950 16.9000 128.500 ST 95 940 14 301
1994273N08176 1994 98 WP MM SETH 1994-10-07 09:00:00 TS 17.2929 127.907 main 533 513 PPPP__________ WP321994 17.2349 127.977 112 3 17.3072 127.920 5 95 930 9 130 130 9 270 270 17.3724 127.862 5 92 945 17.2573 127.870 ST 102 930 13 299
1994273N08176 1994 98 WP MM SETH 1994-10-07 12:00:00 TS 17.6000 127.350 100 925 tokyo main 521 477 OOOO__________ jtwc_wp WP321994 17.6000 127.400 120 4 17.6000 127.400 5 100 925 9 140 140 9 280 280 0 17.6000 127.300 5 97 940 17.6000 127.300 SuperT 110 920 12 303
1994273N08176 1994 98 WP MM SETH 1994-10-07 15:00:00 TS 17.9530 126.831 main 469 432 PPPP__________ WP321994 17.9999 126.870 120 4 17.9349 126.877 5 102 920 9 145 145 9 290 290 17.9273 126.812 5 101 935 17.9499 126.762 SuperT 107 922 12 308
1994273N08176 1994 98 WP MM SETH 1994-10-07 18:00:00 TS 18.3250 126.375 105 915 tokyo main 432 390 OOOO__________ jtwc_wp WP321994 18.4000 126.400 120 4 18.3000 126.400 5 105 915 9 150 150 9 300 300 0 18.3000 126.400 6 106 930 18.3000 126.300 SuperT 105 925 11 312
1994273N08176 1994 98 WP MM SETH 1994-10-07 21:00:00 TS 18.6980 125.974 main 391 356 PPPP__________ WP321994 18.7574 125.970 120 4 18.6999 125.970 5 107 912 9 155 155 9 300 300 18.6923 126.035 6 106 927 18.6423 125.920 SuperT 105 925 10 317
1994273N08176 1994 98 WP MM SETH 1994-10-08 00:00:00 TS 19.0750 125.625 110 910 tokyo main 356 334 OOOO__________ jtwc_wp WP321994 19.1000 125.600 120 4 19.1000 125.600 5 110 910 9 160 160 9 300 300 0 19.1000 125.700 6 106 925 19.0000 125.600 SuperT 105 925 10 319
1994273N08176 1994 98 WP MM SETH 1994-10-08 03:00:00 TS 19.4481 125.294 main 334 323 PPPP__________ WP321994 19.4499 125.277 117 4 19.4499 125.277 5 110 910 9 160 160 9 300 300 19.5000 125.335 6 106 925 19.3924 125.285 SuperT 105 925 10 322
1994273N08176 1994 98 WP MM SETH 1994-10-08 06:00:00 TS 19.8250 125.000 110 910 tokyo main 324 317 OOOO__________ jtwc_wp WP321994 19.8000 125.000 115 4 19.8000 125.000 5 110 910 9 160 160 9 300 300 0 19.9000 125.000 6 106 925 19.8000 125.000 SuperT 105 925 9 325
1994273N08176 1994 98 WP MM SETH 1994-10-08 09:00:00 TS 20.2164 124.731 main 322 321 PPPP__________ WP321994 20.1500 124.735 115 4 20.1931 124.733 5 107 912 9 155 155 9 300 300 20.3149 124.720 6 101 930 20.2075 124.735 SuperT 105 925 9 329
1994273N08176 1994 98 WP MM SETH 1994-10-08 12:00:00 TS 20.6000 124.500 105 915 tokyo main 337 337 OOOO__________ jtwc_wp WP321994 20.5000 124.500 115 4 20.6000 124.500 5 105 915 9 150 150 9 300 300 0 20.7000 124.500 5 97 935 20.6000 124.500 SuperT 105 925 8 331
1994273N08176 1994 98 WP MM SETH 1994-10-08 15:00:00 TS 20.9519 124.296 105 915 tokyo main 358 337 POPP__________ WP321994 20.8350 124.277 112 3 21.0000 124.300 5 105 915 9 150 150 9 300 300 0 21.0149 124.335 5 97 935 20.9575 124.270 SuperT 102 927 8 333
1994273N08176 1994 98 WP MM SETH 1994-10-08 18:00:00 TS 21.2750 124.125 100 920 tokyo main 337 315 OOOO__________ jtwc_wp WP321994 21.2000 124.100 110 3 21.3000 124.100 5 100 920 9 140 140 9 280 280 0 21.3000 124.200 5 97 935 21.3000 124.100 SuperT 100 930 7 338
1994273N08176 1994 98 WP MM SETH 1994-10-08 21:00:00 TS 21.6062 124.010 100 920 tokyo main 315 284 POPP__________ WP321994 21.6350 123.977 110 3 21.6000 124.000 5 100 920 9 130 130 9 280 280 0 21.5625 124.035 5 97 935 21.6275 124.027 SuperT 97 932 7 345
1994273N08176 1994 98 WP MM SETH 1994-10-09 00:00:00 TS 21.9750 123.925 95 925 tokyo main 284 267 OOOO__________ jtwc_wp WP321994 22.1000 123.900 110 3 21.9000 123.900 5 95 925 9 120 120 9 280 280 0 21.9000 123.900 5 97 935 22.0000 124.000 ST 95 935 9 353
1994273N08176 1994 98 WP MM SETH 1994-10-09 03:00:00 TS 22.4525 123.889 95 930 tokyo main 264 255 POPP__________ WP321994 22.5425 123.857 107 3 22.4000 123.900 5 95 930 9 110 110 9 280 280 0 22.4050 123.842 5 97 935 22.4625 123.957 ST 95 935 10 356
1994273N08176 1994 98 WP MM SETH 1994-10-09 06:00:00 TS 23.0000 123.850 90 935 tokyo main 255 217 OOOO__________ jtwc_wp WP321994 23.0000 123.800 105 3 23.0000 123.900 5 90 935 9 100 100 9 280 280 0 23.0000 123.800 5 97 935 23.0000 123.900 ST 95 935 12 354
1994273N08176 1994 98 WP MM SETH 1994-10-09 09:00:00 TS 23.6037 123.756 90 940 tokyo main 217 177 POPP__________ WP321994 23.5075 123.673 105 3 23.7000 123.800 5 90 940 9 100 100 4 300 270 0 23.6075 123.722 5 92 940 23.5999 123.830 ST 92 937 12 349
1994273N08176 1994 98 WP MM SETH 1994-10-09 12:00:00 TS 24.1500 123.600 90 940 tokyo main 175 148 OOOO__________ jtwc_wp WP321994 24.0000 123.500 105 3 24.2000 123.600 5 90 940 9 100 100 4 300 270 0 24.2000 123.600 5 87 945 24.2000 123.700 ST 90 940 11 343
1994273N08176 1994 98 WP MM SETH 1994-10-09 15:00:00 TS 24.6512 123.404 85 945 tokyo main 145 120 POPP__________ WP321994 24.4075 123.300 102 3 24.7000 123.400 5 85 945 9 100 100 3 300 270 0 24.7523 123.445 5 87 945 24.7450 123.473 ST 87 942 10 337
1994273N08176 1994 98 WP MM SETH 1994-10-09 18:00:00 TS 25.1000 123.150 85 945 tokyo main 121 100 OOOO__________ jtwc_wp WP321994 24.8000 123.100 100 3 25.2000 123.100 5 85 945 9 100 100 3 300 270 0 25.2000 123.200 5 87 945 25.2000 123.200 ST 85 945 10 328
1994273N08176 1994 98 WP MM SETH 1994-10-09 21:00:00 TS 25.4614 122.849 85 945 tokyo main 97 97 POPP__________ WP321994 25.2500 122.928 97 3 25.6000 122.800 5 85 945 9 100 100 3 300 270 0 25.4654 122.755 5 82 947 25.5301 122.912 ST 82 947 8 325
1994273N08176 1994 98 WP MM SETH 1994-10-10 00:00:00 TS 25.7500 122.650 80 950 tokyo main 113 107 OOOO__________ jtwc_wp WP321994 25.7000 122.800 95 2 25.8000 122.700 5 80 950 9 100 100 3 350 270 0 25.7000 122.400 4 77 950 25.8000 122.700 T 80 950 6 341
1994273N08176 1994 98 WP MM SETH 1994-10-10 03:00:00 TS 26.0637 122.619 80 950 tokyo main 136 136 POPP__________ WP321994 26.1000 122.705 92 2 26.0000 122.700 5 80 950 9 100 100 3 350 270 0 26.0699 122.417 4 77 955 26.0849 122.655 T 77 952 7 0
1994273N08176 1994 98 WP MM SETH 1994-10-10 06:00:00 TS 26.4250 122.675 75 955 tokyo main 171 171 OOOO__________ jtwc_wp WP321994 26.5000 122.700 90 2 26.3000 122.700 5 75 955 9 100 100 3 350 240 0 26.5000 122.600 4 77 960 26.4000 122.700 T 75 955 8 9
1994273N08176 1994 98 WP MM SETH 1994-10-10 09:00:00 TS 26.8364 122.749 main 199 169 PPPP__________ WP321994 26.9350 122.820 87 2 26.7056 122.713 5 72 957 9 100 100 3 337 230 26.9350 122.735 4 72 965 26.7700 122.728 T 72 957 9 11
1994273N08176 1994 98 WP MM SETH 1994-10-10 12:00:00 TS 27.3000 122.875 70 960 tokyo main 169 148 OOOO__________ jtwc_wp WP321994 27.4000 123.000 85 2 27.2000 122.800 5 70 960 9 100 100 3 325 220 0 27.4000 122.900 4 68 970 27.2000 122.800 T 70 960 10 15
1994273N08176 1994 98 WP MM SETH 1994-10-10 15:00:00 TS 27.7919 123.042 main 148 148 PPPP__________ WP321994 27.8850 123.143 82 1 27.7276 123.020 5 65 965 9 95 95 3 297 210 27.8850 123.085 4 63 972 27.6700 122.920 T 67 962 11 18
1994273N08176 1994 98 WP MM SETH 1994-10-10 18:00:00 TS 28.3250 123.250 60 970 tokyo main 161 143 OOOO__________ jtwc_wp WP321994 28.4000 123.300 80 1 28.3000 123.300 4 60 970 9 90 90 3 270 200 0 28.4000 123.300 3 58 975 28.2000 123.100 T 65 965 12 19
1994273N08176 1994 98 WP MM SETH 1994-10-10 21:00:00 TS 28.8906 123.480 main 149 145 PPPP__________ WP321994 28.9424 123.470 77 1 28.8925 123.565 4 57 972 9 90 90 3 270 200 28.9426 123.557 3 58 977 28.7850 123.328 T 62 967 12 20
1994273N08176 1994 98 WP MM SETH 1994-10-11 00:00:00 TS 29.4750 123.725 55 975 tokyo main 167 167 OOOO__________ jtwc_wp WP321994 29.5000 123.700 75 1 29.5000 123.800 4 55 975 9 90 90 3 270 200 0 29.5000 123.800 3 58 980 29.4000 123.600 STS 60 970 12 19
1994273N08176 1994 98 WP MM SETH 1994-10-11 03:00:00 TS 30.0329 123.932 main 193 193 PPPP__________ WP321994 30.0274 124.013 72 1 30.0922 123.921 4 55 975 9 90 90 3 255 190 30.0272 123.921 3 58 980 29.9848 123.871 STS 57 972 12 20
1994273N08176 1994 98 WP MM SETH 1994-10-11 06:00:00 TS 30.6250 124.200 55 975 tokyo main 221 220 OOOO__________ jtwc_wp WP321994 30.6000 124.400 70 1 30.7000 124.100 4 55 975 9 90 90 3 240 180 0 30.6000 124.100 3 58 980 30.6000 124.200 STS 55 975 14 24
1994273N08176 1994 98 WP MM SETH 1994-10-11 09:00:00 TS 31.2685 124.579 main 259 174 PPPP__________ WP321994 31.2546 124.799 67 1 31.3329 124.479 4 55 975 9 85 85 3 240 170 31.2394 124.447 3 58 980 31.2471 124.592 STS 52 977 16 29
1994273N08176 1994 98 WP MM SETH 1994-10-11 12:00:00 TS 32.0000 125.100 55 975 tokyo main 174 78 OOOO__________ jtwc_wp WP321994 32.0000 125.300 65 1 32.0000 125.000 4 55 975 9 80 80 3 240 160 0 32.0000 125.000 3 58 980 32.0000 125.100 STS 50 980 18 33
1994273N08176 1994 98 WP MM SETH 1994-10-11 15:00:00 TS 32.7867 125.730 55 975 tokyo main 71 0 POPP__________ WP321994 32.7593 125.914 65 1 32.7000 125.600 4 55 975 9 80 80 3 240 160 0 32.8517 125.734 3 53 980 32.8358 125.671 STS 50 980 23 35
1994273N08176 1994 98 WP MM SETH 1994-10-11 18:00:00 TS 33.8467 126.660 50 980 tokyo main 33 0 OOOO__________ jtwc_wp WP321994 33.7000 126.700 65 1 33.9000 126.700 4 50 980 0 3 240 160 0 33.9000 126.700 3 48 980 33.9000 126.500 STS 50 980 29 36
1994273N08176 1994 98 WP MM SETH 1994-10-11 21:00:00 TS 35.1241 127.780 50 980 tokyo main 0 0 POPP__________ WP321994 34.9102 127.684 62 0 35.2000 127.800 4 50 980 0 3 240 150 0 35.1906 127.889 3 48 982 35.2674 127.717 STS 50 980 34 36
1994273N08176 1994 98 WP MM SETH 1994-10-12 00:00:00 TS 36.5538 129.077 50 985 tokyo main 0 0 OOOO__________ jtwc_wp WP321994 36.3000 128.800 60 0 36.7000 129.200 4 50 985 0 3 240 150 0 36.6000 129.200 3 48 985 36.8000 129.200 STS 50 980 34 35
1994273N08176 1994 98 WP MM SETH 1994-10-12 03:00:00 MX 37.8919 130.200 986 tokyo main 98 98 POP___________ WP321994 37.7267 129.931 60 0 38.0000 130.200 6 986 0 0 0 37.9491 130.469 3 48 985 STS 33 35
1994273N08176 1994 98 WP MM SETH 1994-10-12 06:00:00 ET 39.2667 131.500 988 tokyo main 226 221 OOO___________ jtwc_wp WP321994 39.2000 131.100 60 0 39.3000 131.700 6 988 0 0 0 39.3000 131.700 9 48 985 34 35
1994273N08176 1994 98 WP MM SETH 1994-10-12 09:00:00 ET 40.6602 132.742 main 223 92 PPP___________ WP321994 40.6488 132.290 57 0 40.7239 133.145 6 988 0 0 40.6081 132.789 9 43 985 34 34
1994273N08176 1994 98 WP MM SETH 1994-10-12 12:00:00 ET 42.1000 134.033 988 tokyo main 81 13 OOO___________ jtwc_wp WP321994 42.1000 133.500 55 0 42.2000 134.600 6 988 0 0 0 42.0000 134.000 9 38 985 37 34
1994273N08176 1994 98 WP MM SETH 1994-10-12 15:00:00 ET 43.7006 135.533 main 13 13 PPP___________ WP321994 43.6120 134.638 55 0 43.7435 136.244 6 987 0 0 43.7463 135.715 9 38 985 38 38
1994273N08176 1994 98 WP MM SETH 1994-10-12 18:00:00 ET 45.0727 137.200 986 tokyo main 31 31 OOO___________ jtwc_wp WP321994 45.0000 136.000 55 0 45.0000 137.800 6 986 0 0 0 45.2000 137.500 9 38 985 31 47
1994273N08176 1994 98 WP MM SETH 1994-10-12 21:00:00 ET 45.7773 138.721 main 63 63 PPP___________ WP321994 46.1012 137.838 52 0 45.6314 139.003 6 986 0 0 45.7613 138.881 9 38 985 22 62
1994273N08176 1994 98 WP MM SETH 1994-10-13 00:00:00 ET 46.1111 140.000 986 tokyo main 139 69 OOO___________ jtwc_wp WP321994 47.0000 140.000 50 0 46.0000 140.000 6 986 0 0 0 46.0000 140.000 9 38 985 17 66
1994273N08176 1994 98 WP MM SETH 1994-10-13 03:00:00 ET 46.4775 140.960 main 61 7 _PP___________ WP321994 -1 46.4965 140.944 6 985 0 0 46.4586 140.976 9 33 985 16 57
1994273N08176 1994 98 WP MM SETH 1994-10-13 06:00:00 ET 47.0000 142.000 984 tokyo main 7 0 _OO___________ -1 47.0000 142.000 6 984 0 0 0 47.0000 142.000 9 29 985 20 56
1994273N08176 1994 98 WP MM SETH 1994-10-13 09:00:00 ET 47.6066 143.430 main 44 44 _PP___________ -1 47.5407 143.496 6 984 0 0 47.6724 143.364 9 29 987 23 60
1994273N08176 1994 98 WP MM SETH 1994-10-13 12:00:00 ET 48.1286 144.957 984 tokyo main 59 49 _OO___________ -1 48.0000 145.000 6 984 0 0 0 48.3000 144.900 9 29 990 20 66
1994273N08176 1994 98 WP MM SETH 1994-10-13 15:00:00 ET 48.4282 146.155 main 112 112 _PP___________ -1 48.2820 146.006 6 984 0 0 48.7207 146.453 9 24 994 16 72
1994273N08176 1994 98 WP MM SETH 1994-10-13 18:00:00 ET 48.6000 147.200 984 tokyo main 182 182 _OO___________ -1 48.5000 147.000 6 984 0 0 0 49.0000 148.000 9 19 998 15 76
1994273N08176 1994 98 WP MM SETH 1994-10-13 21:00:00 ET 48.7848 148.348 main 262 262 _P____________ -1 48.7848 148.348 6 984 0 0 9 19 78
1994273N08176 1994 98 WP MM SETH 1994-10-14 00:00:00 ET 49.0000 150.000 984 tokyo main 322 266 _O____________ -1 49.0000 150.000 6 984 0 0 0 24 85
1994273N08176 1994 98 WP MM SETH 1994-10-14 03:00:00 ET 49.0037 152.008 main 260 153 _P____________ -1 49.0037 152.008 6 984 0 0 26 90
1994273N08176 1994 98 WP MM SETH 1994-10-14 06:00:00 ET 49.0000 154.000 984 tokyo main 149 88 _O____________ -1 49.0000 154.000 6 984 0 0 0 23 85
1994273N08176 1994 98 WP MM SETH 1994-10-14 09:00:00 ET 49.2074 155.573 main 89 82 _P____________ -1 49.2074 155.573 6 984 0 0 20 76
1994273N08176 1994 98 WP MM SETH 1994-10-14 12:00:00 ET 49.5000 157.000 984 tokyo main 110 110 _O____________ -1 49.5000 157.000 6 984 0 0 0 20 74
1994273N08176 1994 98 WP MM SETH 1994-10-14 15:00:00 ET 49.7481 158.502 main 184 181 _P____________ -1 49.7481 158.502 6 984 0 0 20 76
1994273N08176 1994 98 WP MM SETH 1994-10-14 18:00:00 ET 50.0000 160.000 984 tokyo main 230 230 _O____________ -1 50.0000 160.000 6 984 0 0 0 20 76
1994273N08176 1994 98 WP MM SETH 1994-10-14 21:00:00 ET 50.2506 161.575 main 294 294 _P____________ -1 50.2506 161.575 6 984 0 0 20 75
1994273N08176 1994 98 WP MM SETH 1994-10-15 00:00:00 ET 50.5000 163.000 984 tokyo main 349 349 _O____________ -1 50.5000 163.000 6 984 0 0 0 17 71
1994273N08176 1994 98 WP MM SETH 1994-10-15 03:00:00 ET 50.7843 164.075 main 373 373 _P____________ -1 50.7843 164.075 6 984 0 0 14 68
1994273N08176 1994 98 WP MM SETH 1994-10-15 06:00:00 ET 51.0000 165.000 984 tokyo main 406 406 _O____________ -1 51.0000 165.000 6 984 0 0 0 12 80
1994273N08176 1994 98 WP MM SETH 1994-10-15 09:00:00 ET 50.9981 165.968 main 463 463 _P____________ -1 50.9981 165.968 6 984 0 0 13 90
1994273N08176 1994 98 WP MM SETH 1994-10-15 12:00:00 ET 51.0000 167.000 984 tokyo main 523 523 _O____________ -1 51.0000 167.000 6 984 0 0 0 14 80
1994273N08176 1994 98 WP MM SETH 1994-10-15 15:00:00 ET 51.2498 168.208 main 561 558 _P____________ -1 51.2498 168.208 6 984 0 0 16 72
1994273N08176 1994 98 WP MM SETH 1994-10-15 18:00:00 ET 51.5000 169.500 984 tokyo main 605 605 _O____________ -1 51.5000 169.500 6 984 0 0 0 16 80
1994273N08176 1994 98 WP MM SETH 1994-10-15 21:00:00 ET 51.5361 170.753 main 677 677 _P____________ -1 51.5361 170.753 6 982 0 0 15 90
1994273N08176 1994 98 WP MM SETH 1994-10-16 00:00:00 ET 51.5000 172.000 980 tokyo main 746 746 _O____________ -1 51.5000 172.000 6 980 0 0 0 15 91
1994273N08176 1994 98 WP MM SETH 1994-10-16 03:00:00 ET 51.4974 173.213 main 816 816 _P____________ -1 51.4974 173.213 6 980 0 0 15 90
1994273N08176 1994 98 WP MM SETH 1994-10-16 06:00:00 ET 51.5000 174.500 980 tokyo main 890 890 _O____________ -1 51.5000 174.500 6 980 0 0 0 16 90
1994273N08176 1994 98 WP MM SETH 1994-10-16 09:00:00 ET 51.4943 175.851 main 965 940 _P____________ -1 51.4943 175.851 6 982 0 0 19 90
1994273N08176 1994 98 WP MM SETH 1994-10-16 12:00:00 ET 51.5000 177.500 984 tokyo main 933 800 _O____________ -1 51.5000 177.500 6 984 0 0 0 23 90
1994273N08176 1994 98 WP MM SETH 1994-10-16 15:00:00 ET 51.5129 179.612 main 794 642 _P____________ -1 51.5129 179.612 6 986 0 0 28 90
1994273N08176 1994 98 EP CP SETH 1994-10-16 18:00:00 ET 51.5000 182.000 main 635 _O____________ -1 51.5000 182.000 6 988 0 0 0 30 90

デジタル台風データ・検索

IBTrACS Databaseについて

本データベースは、米国NOAAが公開する1842年以降の世界の熱帯低気圧のベストトラックデータアーカイブInternational Best Track Archive for Climate Stewardship (IBTrACS)を、ウェブで閲覧しやすい形式に変換したものです。

最終更新日:2021-12-03